createdAt,value
2023-02-16T00:01:16.843Z,101459.69
2023-02-16T00:03:46.558Z,101453.53
2023-02-16T00:06:16.223Z,101456.03
2023-02-16T00:08:45.595Z,101461.38
2023-02-16T00:11:35.657Z,101453.06
2023-02-16T00:14:04.413Z,101448.72
2023-02-16T00:16:32.235Z,101459.38
2023-02-16T00:19:01.320Z,101456.22
2023-02-16T00:21:29.154Z,101464.03
2023-02-16T00:23:56.942Z,101460.69
2023-02-16T00:26:25.978Z,101458.03
2023-02-16T00:28:55.134Z,101460.03
2023-02-16T00:31:27.312Z,101455.69
2023-02-16T00:33:55.660Z,101453.41
2023-02-16T00:36:25.071Z,101463.19
2023-02-16T00:38:52.965Z,101452.88
2023-02-16T00:41:40.090Z,101451.72
2023-02-16T00:44:08.119Z,101450.72
2023-02-16T00:46:35.946Z,101463.34
2023-02-16T00:49:04.107Z,101460.34
2023-02-16T00:51:33.416Z,101457.03
2023-02-16T00:54:01.088Z,101449.72
2023-02-16T00:56:28.861Z,101441.41
2023-02-16T00:58:56.665Z,101448.38
2023-02-16T01:01:25.850Z,101443.22
2023-02-16T01:03:53.568Z,101457.34
2023-02-16T01:06:50.365Z,101441.03
2023-02-16T01:09:38.790Z,101445.63
2023-02-16T01:12:10.644Z,101446.28
2023-02-16T01:14:38.641Z,101450.25
2023-02-16T01:17:06.295Z,101451.59
2023-02-16T01:19:33.997Z,101446.22
2023-02-16T01:22:01.731Z,101448.53
2023-02-16T01:24:30.850Z,101448.78
2023-02-16T01:26:58.512Z,101451.75
2023-02-16T01:29:27.038Z,101452.66
2023-02-16T01:31:54.864Z,101446.50
2023-02-16T01:34:22.619Z,101451.41
2023-02-16T01:36:50.673Z,101441.63
2023-02-16T01:39:20.775Z,101444.00
2023-02-16T01:41:58.653Z,101443.25
2023-02-16T01:44:28.663Z,101445.78
2023-02-16T01:46:58.279Z,101443.56
2023-02-16T01:49:26.107Z,101444.06
2023-02-16T01:51:57.753Z,101445.38
2023-02-16T01:54:35.641Z,101443.59
2023-02-16T01:57:10.209Z,101448.97
2023-02-16T01:59:43.258Z,101439.00
2023-02-16T02:02:16.561Z,101440.97
2023-02-16T02:05:03.577Z,101446.00
2023-02-16T02:07:38.795Z,101427.09
2023-02-16T02:10:11.600Z,101423.06
2023-02-16T02:12:47.713Z,101432.75
2023-02-16T02:15:16.998Z,101432.19
2023-02-16T02:17:46.220Z,101432.88
2023-02-16T02:20:18.077Z,101426.59
2023-02-16T02:23:16.540Z,101427.94
2023-02-16T02:25:59.849Z,101419.50
2023-02-16T02:28:34.290Z,101412.38
2023-02-16T02:31:04.755Z,101402.91
2023-02-16T02:33:42.585Z,101405.56
2023-02-16T02:36:19.974Z,101403.56
2023-02-16T02:38:57.519Z,101402.91
2023-02-16T02:41:48.641Z,101404.59
2023-02-16T02:44:21.118Z,101398.97
2023-02-16T02:46:48.983Z,101392.94
2023-02-16T02:49:17.114Z,101394.19
2023-02-16T02:51:44.786Z,101391.28
2023-02-16T02:54:32.049Z,101391.97
2023-02-16T02:57:20.367Z,101386.97
2023-02-16T03:00:11.356Z,101387.66
2023-02-16T03:02:40.785Z,101380.63
2023-02-16T03:05:10.303Z,101385.41
2023-02-16T03:07:48.220Z,101384.53
2023-02-16T03:10:34.915Z,101384.97
2023-02-16T03:13:03.838Z,101384.88
2023-02-16T03:15:33.253Z,101389.44
2023-02-16T03:18:19.002Z,101392.28
2023-02-16T03:21:05.134Z,101386.41
2023-02-16T03:23:50.595Z,101378.19
2023-02-16T03:26:36.951Z,101372.75
2023-02-16T03:29:16.720Z,101369.28
2023-02-16T03:31:46.439Z,101365.66
2023-02-16T03:34:14.402Z,101356.75
2023-02-16T03:36:44.678Z,101362.72
2023-02-16T03:39:13.925Z,101357.75
2023-02-16T03:41:43.787Z,101364.06
2023-02-16T03:44:11.531Z,101362.53
2023-02-16T03:46:39.231Z,101363.16
2023-02-16T03:49:08.258Z,101359.00
2023-02-16T03:51:35.971Z,101357.34
2023-02-16T03:54:03.640Z,101369.44
2023-02-16T03:56:31.321Z,101369.22
2023-02-16T03:58:59.102Z,101374.75
2023-02-16T04:01:26.887Z,101376.59
2023-02-16T04:03:54.599Z,101375.91
2023-02-16T04:06:23.807Z,101381.09
2023-02-16T04:08:51.924Z,101375.91
2023-02-16T04:11:37.028Z,101378.38
2023-02-16T04:14:04.722Z,101370.38
2023-02-16T04:16:32.439Z,101368.59
2023-02-16T04:19:00.111Z,101368.38
2023-02-16T04:21:29.565Z,101363.19
2023-02-16T04:23:57.173Z,101357.41
2023-02-16T04:26:24.812Z,101367.38
2023-02-16T04:28:52.527Z,101355.72
2023-02-16T04:31:20.355Z,101348.59
2023-02-16T04:33:48.137Z,101351.28
2023-02-16T04:36:15.810Z,101351.59
2023-02-16T04:38:44.985Z,101358.31
2023-02-16T04:41:12.594Z,101361.88
2023-02-16T04:43:40.229Z,101359.56
2023-02-16T04:46:07.927Z,101367.38
2023-02-16T04:48:35.604Z,101362.81
2023-02-16T04:51:05.257Z,101368.75
2023-02-16T04:53:33.347Z,101358.44
2023-02-16T04:56:02.397Z,101365.38
2023-02-16T04:58:30.114Z,101370.38
2023-02-16T05:00:57.766Z,101371.03
2023-02-16T05:03:25.433Z,101363.44
2023-02-16T05:05:53.065Z,101372.66
2023-02-16T05:08:21.007Z,101379.25
2023-02-16T05:11:08.935Z,101367.72
2023-02-16T05:13:55.879Z,101361.47
2023-02-16T05:16:24.395Z,101363.28
2023-02-16T05:18:52.095Z,101358.13
2023-02-16T05:21:32.398Z,101363.81
2023-02-16T05:24:00.403Z,101355.41
2023-02-16T05:26:29.334Z,101352.97
2023-02-16T05:28:58.638Z,101347.66
2023-02-16T05:31:27.378Z,101342.00
2023-02-16T05:33:55.171Z,101348.31
2023-02-16T05:36:23.321Z,101339.66
2023-02-16T05:38:50.993Z,101347.91
2023-02-16T05:41:24.457Z,101347.78
2023-02-16T05:43:53.737Z,101344.31
2023-02-16T05:46:24.012Z,101346.97
2023-02-16T05:48:52.803Z,101348.78
2023-02-16T05:51:20.874Z,101352.28
2023-02-16T05:53:48.631Z,101355.09
2023-02-16T05:56:16.469Z,101357.22
2023-02-16T05:58:44.115Z,101354.09
2023-02-16T06:01:11.887Z,101361.97
2023-02-16T06:03:41.255Z,101359.78
2023-02-16T06:06:09.764Z,101368.28
2023-02-16T06:08:38.124Z,101377.09
2023-02-16T06:11:27.271Z,101372.63
2023-02-16T06:13:58.106Z,101368.69
2023-02-16T06:16:26.707Z,101368.38
2023-02-16T06:18:56.275Z,101368.06
2023-02-16T06:21:24.789Z,101366.06
2023-02-16T06:23:52.619Z,101363.09
2023-02-16T06:26:20.262Z,101364.78
2023-02-16T06:28:47.984Z,101369.97
2023-02-16T06:31:15.784Z,101365.78
2023-02-16T06:33:43.943Z,101365.13
2023-02-16T06:36:13.237Z,101371.13
2023-02-16T06:38:40.892Z,101351.03
2023-02-16T06:41:08.675Z,101351.88
2023-02-16T06:43:36.638Z,101332.59
2023-02-16T06:46:04.755Z,101339.75
2023-02-16T06:48:32.416Z,101345.22
2023-02-16T06:51:00.099Z,101341.94
2023-02-16T06:53:29.160Z,101351.56
2023-02-16T06:55:57.345Z,101355.72
2023-02-16T06:58:24.994Z,101363.19
2023-02-16T07:00:55.704Z,101359.22
2023-02-16T07:03:23.395Z,101356.09
2023-02-16T07:05:51.173Z,101347.59
2023-02-16T07:08:18.844Z,101367.53
2023-02-16T07:10:50.354Z,101347.59
2023-02-16T07:13:18.214Z,101361.56
2023-02-16T07:15:51.614Z,101353.59
2023-02-16T07:18:19.345Z,101359.56
2023-02-16T07:20:47.338Z,101358.22
2023-02-16T07:23:14.961Z,101365.22
2023-02-16T07:25:42.628Z,101368.03
2023-02-16T07:28:11.702Z,101359.41
2023-02-16T07:30:39.423Z,101358.88
2023-02-16T07:33:07.704Z,101363.16
2023-02-16T07:35:35.430Z,101353.34
2023-02-16T07:38:03.407Z,101353.69
2023-02-16T07:40:31.842Z,101353.66
2023-02-16T07:43:00.726Z,101357.81
2023-02-16T07:45:32.649Z,101361.66
2023-02-16T07:48:00.416Z,101369.00
2023-02-16T07:50:28.165Z,101375.16
2023-02-16T07:52:55.839Z,101369.09
2023-02-16T07:55:23.597Z,101365.78
2023-02-16T07:57:55.409Z,101354.81
2023-02-16T08:00:23.387Z,101359.66
2023-02-16T08:02:52.755Z,101362.50
2023-02-16T08:05:20.536Z,101364.69
2023-02-16T08:07:48.616Z,101365.66
2023-02-16T08:10:16.326Z,101363.56
2023-02-16T08:12:44.426Z,101376.94
2023-02-16T08:15:12.542Z,101360.16
2023-02-16T08:17:40.813Z,101364.78
2023-02-16T08:20:10.853Z,101367.50
2023-02-16T08:22:38.597Z,101368.47
2023-02-16T08:25:07.261Z,101385.22
2023-02-16T08:27:35.585Z,101383.56
2023-02-16T08:30:03.512Z,101381.63
2023-02-16T08:32:31.420Z,101399.44
2023-02-16T08:34:59.502Z,101388.59
2023-02-16T08:37:28.738Z,101397.63
2023-02-16T08:39:56.407Z,101395.44
2023-02-16T08:42:24.056Z,101391.88
2023-02-16T08:44:52.993Z,101374.34
2023-02-16T08:47:21.103Z,101379.22
2023-02-16T08:49:48.813Z,101373.28
2023-02-16T08:52:16.841Z,101375.44
2023-02-16T08:54:45.878Z,101368.75
2023-02-16T08:57:13.503Z,101375.56
2023-02-16T08:59:41.222Z,101366.63
2023-02-16T09:02:09.174Z,101367.84
2023-02-16T09:04:37.099Z,101370.78
2023-02-16T09:07:05.257Z,101380.06
2023-02-16T09:09:33.265Z,101383.38
2023-02-16T09:12:02.778Z,101367.28
2023-02-16T09:14:30.487Z,101369.53
2023-02-16T09:16:58.216Z,101368.69
2023-02-16T09:19:26.174Z,101369.84
2023-02-16T09:21:56.310Z,101380.84
2023-02-16T09:24:23.957Z,101383.63
2023-02-16T09:26:52.079Z,101383.50
2023-02-16T09:29:21.794Z,101379.28
2023-02-16T09:31:49.819Z,101379.72
2023-02-16T09:34:19.054Z,101387.66
2023-02-16T09:36:47.376Z,101394.06
2023-02-16T09:39:16.537Z,101385.94
2023-02-16T09:42:03.789Z,101390.94
2023-02-16T09:44:39.836Z,101401.47
2023-02-16T09:47:12.754Z,101396.94
2023-02-16T09:49:42.738Z,101393.06
2023-02-16T09:52:15.869Z,101388.34
2023-02-16T09:54:47.595Z,101385.75
2023-02-16T09:57:21.436Z,101380.72
2023-02-16T09:59:54.065Z,101389.75
2023-02-16T10:02:32.032Z,101388.47
2023-02-16T10:05:13.362Z,101388.59
2023-02-16T10:07:46.899Z,101386.81
2023-02-16T10:10:17.797Z,101387.91
2023-02-16T10:12:51.573Z,101379.44
2023-02-16T10:15:22.931Z,101389.53
2023-02-16T10:17:55.495Z,101380.22
2023-02-16T10:20:25.913Z,101379.34
2023-02-16T10:22:58.610Z,101381.97
2023-02-16T10:25:30.841Z,101377.47
2023-02-16T10:28:16.062Z,101373.91
2023-02-16T10:30:50.358Z,101376.53
2023-02-16T10:33:24.328Z,101378.72
2023-02-16T10:35:57.133Z,101378.94
2023-02-16T10:38:32.346Z,101374.50
2023-02-16T10:41:03.033Z,101374.88
2023-02-16T10:43:40.917Z,101377.31
2023-02-16T10:46:11.948Z,101378.38
2023-02-16T10:48:39.667Z,101377.97
2023-02-16T10:51:14.151Z,101387.34
2023-02-16T10:53:44.459Z,101383.75
2023-02-16T10:56:32.792Z,101386.50
2023-02-16T10:59:01.877Z,101390.19
2023-02-16T11:01:38.233Z,101392.34
2023-02-16T11:04:06.399Z,101390.44
2023-02-16T11:06:36.424Z,101391.19
2023-02-16T11:09:06.633Z,101393.75
2023-02-16T11:11:38.081Z,101393.47
2023-02-16T11:14:09.168Z,101388.72
2023-02-16T11:16:38.276Z,101385.16
2023-02-16T11:19:08.822Z,101380.31
2023-02-16T11:21:48.445Z,101386.69
2023-02-16T11:24:26.264Z,101380.03
2023-02-16T11:27:06.184Z,101390.81
2023-02-16T11:29:34.369Z,101379.63
2023-02-16T11:32:08.233Z,101384.97
2023-02-16T11:34:37.644Z,101376.38
2023-02-16T11:37:09.141Z,101375.53
2023-02-16T11:39:39.130Z,101373.41
2023-02-16T11:42:09.880Z,101373.22
2023-02-16T11:44:39.928Z,101367.69
2023-02-16T11:47:23.872Z,101370.31
2023-02-16T11:49:53.468Z,101366.69
2023-02-16T11:52:29.176Z,101361.47
2023-02-16T11:54:58.833Z,101366.53
2023-02-16T11:57:28.610Z,101363.16
2023-02-16T11:59:57.183Z,101353.47
2023-02-16T12:02:40.727Z,101360.41
2023-02-16T12:05:23.399Z,101362.38
2023-02-16T12:08:02.448Z,101359.88
2023-02-16T12:10:32.624Z,101359.81
2023-02-16T12:13:04.106Z,101356.00
2023-02-16T12:15:36.886Z,101355.34
2023-02-16T12:18:18.374Z,101357.13
2023-02-16T12:20:54.164Z,101355.44
2023-02-16T12:23:31.102Z,101351.47
2023-02-16T12:26:09.875Z,101343.16
2023-02-16T12:28:43.566Z,101333.88
2023-02-16T12:31:17.208Z,101335.47
2023-02-16T12:33:51.883Z,101344.97
2023-02-16T12:36:29.926Z,101337.38
2023-02-16T12:39:04.999Z,101345.34
2023-02-16T12:41:44.268Z,101334.44
2023-02-16T12:44:17.422Z,101337.75
2023-02-16T12:46:46.900Z,101330.19
2023-02-16T12:49:21.169Z,101327.03
2023-02-16T12:51:51.816Z,101332.41
2023-02-16T12:54:23.939Z,101342.84
2023-02-16T12:56:56.193Z,101332.84
2023-02-16T12:59:27.422Z,101330.72
2023-02-16T13:01:57.214Z,101341.94
2023-02-16T13:04:38.271Z,101351.34
2023-02-16T13:07:17.992Z,101358.78
2023-02-16T13:09:53.442Z,101356.88
2023-02-16T13:12:27.466Z,101355.75
2023-02-16T13:15:02.817Z,101358.41
2023-02-16T13:17:34.545Z,101362.44
2023-02-16T13:20:04.951Z,101351.66
2023-02-16T13:22:45.244Z,101333.09
2023-02-16T13:25:43.180Z,101318.53
2023-02-16T13:28:27.381Z,101318.34
2023-02-16T13:31:08.312Z,101312.63
2023-02-16T13:33:51.558Z,101318.56
2023-02-16T13:36:36.044Z,101317.03
2023-02-16T13:39:17.541Z,101316.78
2023-02-16T13:41:58.770Z,101301.16
2023-02-16T13:44:29.679Z,101286.06
2023-02-16T13:46:57.672Z,101286.97
2023-02-16T13:49:33.931Z,101273.50
2023-02-16T13:52:03.744Z,101276.81
2023-02-16T13:54:33.026Z,101269.63
2023-02-16T13:57:04.088Z,101269.41
2023-02-16T13:59:51.021Z,101270.84
2023-02-16T14:02:54.404Z,101260.84
2023-02-16T14:05:31.119Z,101263.28
2023-02-16T14:08:20.356Z,101252.34
2023-02-16T14:10:58.938Z,101255.00
2023-02-16T14:13:29.817Z,101254.38
2023-02-16T14:15:59.193Z,101260.34
2023-02-16T14:18:32.731Z,101259.47
2023-02-16T14:21:04.936Z,101263.47
2023-02-16T14:23:35.564Z,101261.53
2023-02-16T14:26:04.810Z,101257.59
2023-02-16T14:29:00.672Z,101259.75
2023-02-16T14:31:28.792Z,101252.50
2023-02-16T14:34:03.641Z,101249.63
2023-02-16T14:36:32.235Z,101245.84
2023-02-16T14:39:01.926Z,101235.34
2023-02-16T14:41:32.507Z,101234.97
2023-02-16T14:44:24.796Z,101227.31
2023-02-16T14:47:01.553Z,101218.94
2023-02-16T14:49:39.171Z,101216.75
2023-02-16T14:52:26.434Z,101212.31
2023-02-16T14:55:24.060Z,101216.84
2023-02-16T14:57:54.887Z,101208.97
2023-02-16T15:00:26.857Z,101204.56
2023-02-16T15:02:59.640Z,101207.59
2023-02-16T15:05:29.990Z,101208.41
2023-02-16T15:08:04.646Z,101206.41
2023-02-16T15:10:34.006Z,101180.59
2023-02-16T15:13:02.348Z,101183.88
2023-02-16T15:15:42.375Z,101185.53
2023-02-16T15:18:15.370Z,101187.63
2023-02-16T15:20:46.282Z,101176.47
2023-02-16T15:23:20.037Z,101182.03
2023-02-16T15:25:58.629Z,101185.09
2023-02-16T15:28:27.685Z,101186.72
2023-02-16T15:30:57.234Z,101203.13
2023-02-16T15:33:34.245Z,101203.19
2023-02-16T15:36:04.582Z,101192.53
2023-02-16T15:38:34.222Z,101209.66
2023-02-16T15:41:06.022Z,101216.53
2023-02-16T15:43:35.865Z,101219.34
2023-02-16T15:46:05.702Z,101216.88
2023-02-16T15:48:34.805Z,101210.91
2023-02-16T15:51:08.038Z,101209.69
2023-02-16T15:53:43.211Z,101210.16
2023-02-16T15:56:25.827Z,101206.25
2023-02-16T15:58:54.042Z,101196.84
2023-02-16T16:01:31.597Z,101201.50
2023-02-16T16:04:05.799Z,101197.38
2023-02-16T16:06:35.908Z,101193.84
2023-02-16T16:09:08.228Z,101187.84
2023-02-16T16:11:38.294Z,101181.44
2023-02-16T16:14:07.318Z,101183.91
2023-02-16T16:16:35.157Z,101179.09
2023-02-16T16:19:08.728Z,101180.47
2023-02-16T16:21:39.335Z,101179.25
2023-02-16T16:24:08.831Z,101168.69
2023-02-16T16:26:52.926Z,101161.19
2023-02-16T16:29:31.962Z,101161.19
2023-02-16T16:31:59.693Z,101169.69
2023-02-16T16:34:36.726Z,101164.72
2023-02-16T16:37:07.000Z,101170.88
2023-02-16T16:39:36.092Z,101165.78
2023-02-16T16:42:20.957Z,101168.06
2023-02-16T16:45:00.472Z,101163.03
2023-02-16T16:47:32.985Z,101164.25
2023-02-16T16:50:03.937Z,101158.47
2023-02-16T16:52:40.775Z,101160.56
2023-02-16T16:55:22.454Z,101165.91
2023-02-16T16:57:52.384Z,101164.06
2023-02-16T17:00:21.518Z,101161.00
2023-02-16T17:02:49.571Z,101154.19
2023-02-16T17:05:17.353Z,101151.34
2023-02-16T17:07:49.018Z,101145.38
2023-02-16T17:10:18.020Z,101146.97
2023-02-16T17:12:46.444Z,101142.44
2023-02-16T17:15:31.174Z,101130.53
2023-02-16T17:17:59.268Z,101137.38
2023-02-16T17:20:27.076Z,101134.47
2023-02-16T17:22:54.766Z,101144.97
2023-02-16T17:25:22.472Z,101133.81
2023-02-16T17:27:50.321Z,101130.22
2023-02-16T17:30:18.423Z,101123.78
2023-02-16T17:32:47.484Z,101129.75
2023-02-16T17:35:15.367Z,101121.09
2023-02-16T17:37:43.098Z,101121.94
2023-02-16T17:40:15.036Z,101119.06
2023-02-16T17:42:43.059Z,101121.94
2023-02-16T17:45:10.984Z,101127.09
2023-02-16T17:47:38.912Z,101129.00
2023-02-16T17:50:09.592Z,101126.19
2023-02-16T17:52:37.545Z,101117.50
2023-02-16T17:55:05.568Z,101125.56
2023-02-16T17:57:33.519Z,101119.78
2023-02-16T18:00:01.232Z,101123.88
2023-02-16T18:02:29.117Z,101122.47
2023-02-16T18:04:56.765Z,101118.06
2023-02-16T18:07:26.050Z,101127.31
2023-02-16T18:09:53.979Z,101117.88
2023-02-16T18:12:22.105Z,101113.31
2023-02-16T18:14:49.740Z,101110.13
2023-02-16T18:17:17.941Z,101094.06
2023-02-16T18:19:45.714Z,101098.63
2023-02-16T18:22:13.914Z,101105.22
2023-02-16T18:24:44.410Z,101094.13
2023-02-16T18:27:12.068Z,101097.41
2023-02-16T18:29:39.869Z,101101.16
2023-02-16T18:32:07.735Z,101096.78
2023-02-16T18:34:37.560Z,101102.94
2023-02-16T18:37:05.431Z,101102.53
2023-02-16T18:39:33.475Z,101098.88
2023-02-16T18:42:02.932Z,101094.06
2023-02-16T18:44:30.551Z,101089.97
2023-02-16T18:46:58.864Z,101082.97
2023-02-16T18:49:26.521Z,101085.69
2023-02-16T18:51:54.519Z,101087.09
2023-02-16T18:54:22.156Z,101088.97
2023-02-16T18:56:50.150Z,101078.91
2023-02-16T18:59:19.208Z,101080.09
2023-02-16T19:01:46.864Z,101077.06
2023-02-16T19:04:14.509Z,101074.34
2023-02-16T19:06:42.146Z,101067.81
2023-02-16T19:09:09.787Z,101061.81
2023-02-16T19:11:37.697Z,101061.63
2023-02-16T19:14:05.325Z,101068.19
2023-02-16T19:16:34.690Z,101075.25
2023-02-16T19:19:02.542Z,101066.19
2023-02-16T19:21:30.339Z,101068.44
2023-02-16T19:23:59.018Z,101073.19
2023-02-16T19:26:26.874Z,101068.63
2023-02-16T19:28:54.853Z,101071.31
2023-02-16T19:31:24.672Z,101076.88
2023-02-16T19:33:55.686Z,101073.59
2023-02-16T19:36:23.849Z,101077.31
2023-02-16T19:38:51.552Z,101071.13
2023-02-16T19:41:20.692Z,101073.41
2023-02-16T19:43:48.475Z,101083.53
2023-02-16T19:46:16.484Z,101081.44
2023-02-16T19:48:45.980Z,101070.72
2023-02-16T19:51:15.712Z,101079.34
2023-02-16T19:53:44.829Z,101080.81
2023-02-16T19:56:14.449Z,101070.88
2023-02-16T19:58:42.077Z,101065.69
2023-02-16T20:01:12.046Z,101058.63
2023-02-16T20:03:40.049Z,101061.13
2023-02-16T20:06:17.806Z,101057.19
2023-02-16T20:08:46.137Z,101058.56
2023-02-16T20:11:13.975Z,101066.84
2023-02-16T20:13:41.709Z,101060.84
2023-02-16T20:16:10.824Z,101064.81
2023-02-16T20:18:39.297Z,101061.28
2023-02-16T20:21:08.912Z,101056.25
2023-02-16T20:23:37.998Z,101065.31
2023-02-16T20:26:07.453Z,101063.75
2023-02-16T20:28:35.326Z,101056.31
2023-02-16T20:31:04.356Z,101062.34
2023-02-16T20:33:31.981Z,101056.94
2023-02-16T20:35:59.594Z,101049.31
2023-02-16T20:38:27.171Z,101048.72
2023-02-16T20:40:56.195Z,101044.22
2023-02-16T20:43:23.916Z,101049.31
2023-02-16T20:45:51.567Z,101043.59
2023-02-16T20:48:19.682Z,101046.06
2023-02-16T20:50:47.596Z,101034.97
2023-02-16T20:53:15.188Z,101037.81
2023-02-16T20:55:43.211Z,101035.34
2023-02-16T20:58:12.272Z,101036.41
2023-02-16T21:00:39.974Z,101025.47
2023-02-16T21:03:07.684Z,101042.97
2023-02-16T21:05:35.443Z,101042.78
2023-02-16T21:08:03.458Z,101031.28
2023-02-16T21:10:31.108Z,101041.53
2023-02-16T21:12:58.748Z,101035.38
2023-02-16T21:15:28.062Z,101034.13
2023-02-16T21:17:55.784Z,101031.69
2023-02-16T21:20:23.432Z,101022.13
2023-02-16T21:22:51.480Z,101024.19
2023-02-16T21:25:19.561Z,101018.88
2023-02-16T21:27:47.241Z,101023.97
2023-02-16T21:30:15.867Z,101017.22
2023-02-16T21:32:45.063Z,101019.88
2023-02-16T21:35:12.734Z,101006.28
2023-02-16T21:37:40.409Z,101000.94
2023-02-16T21:40:26.803Z,100997.25
2023-02-16T21:42:54.457Z,100996.41
2023-02-16T21:45:22.160Z,100986.72
2023-02-16T21:48:08.940Z,100983.81
2023-02-16T21:50:38.482Z,100987.13
2023-02-16T21:53:07.052Z,100981.75
2023-02-16T21:55:52.162Z,100988.56
2023-02-16T21:58:19.800Z,100995.34
2023-02-16T22:00:51.180Z,100993.69
2023-02-16T22:03:21.066Z,100990.00
2023-02-16T22:05:48.837Z,100981.75
2023-02-16T22:08:17.799Z,100980.59
2023-02-16T22:10:45.714Z,100987.09
2023-02-16T22:13:13.413Z,100977.63
2023-02-16T22:15:41.102Z,100972.25
2023-02-16T22:18:08.969Z,100965.47
2023-02-16T22:20:38.349Z,100969.41
2023-02-16T22:23:05.995Z,100969.41
2023-02-16T22:25:33.612Z,100962.22
2023-02-16T22:28:01.374Z,100965.69
2023-02-16T22:30:29.117Z,100962.41
2023-02-16T22:32:56.817Z,100968.59
2023-02-16T22:35:24.725Z,100969.84
2023-02-16T22:37:53.818Z,100974.78
2023-02-16T22:40:21.438Z,100982.19
2023-02-16T22:42:49.088Z,100977.28
2023-02-16T22:45:16.842Z,100977.28
2023-02-16T22:47:44.491Z,100973.56
2023-02-16T22:50:12.312Z,100975.22
2023-02-16T22:52:40.076Z,100976.84
2023-02-16T22:55:10.056Z,100975.41
2023-02-16T22:57:37.988Z,100979.97
2023-02-16T23:00:08.458Z,100980.97
2023-02-16T23:02:37.640Z,100973.56
2023-02-16T23:05:05.837Z,100975.44
2023-02-16T23:07:34.130Z,100974.16
2023-02-16T23:10:01.929Z,100974.84
2023-02-16T23:12:31.005Z,100966.81
2023-02-16T23:14:58.648Z,100977.06
2023-02-16T23:17:26.300Z,100978.75
2023-02-16T23:19:53.951Z,100978.91
2023-02-16T23:22:21.719Z,100979.34
2023-02-16T23:25:09.892Z,100974.84
2023-02-16T23:27:39.372Z,100968.84
2023-02-16T23:30:08.676Z,100965.75
2023-02-16T23:32:36.631Z,100977.06
2023-02-16T23:35:04.589Z,100967.41
2023-02-16T23:37:32.460Z,100974.41
2023-02-16T23:40:00.376Z,100963.09
2023-02-16T23:42:28.059Z,100962.47
2023-02-16T23:44:57.080Z,100955.06
2023-02-16T23:47:24.867Z,100948.91
2023-02-16T23:49:52.554Z,100948.91
2023-02-16T23:52:20.443Z,100949.75
2023-02-16T23:54:48.204Z,100949.75
2023-02-16T23:57:15.860Z,100962.50
2023-02-16T23:59:44.274Z,100960.00
